sensor_id;sensor_type;location;lat;lon;timestamp;pressure;altitude;pressure_sealevel;temperature;humidity
13486;BME280;6815;59.336;17.998;2023-05-11T00:01:05;51969.38;;;-145.37;42.14
13486;BME280;6815;59.336;17.998;2023-05-11T00:03:31;52017.28;;;-145.37;42.39
13486;BME280;6815;59.336;17.998;2023-05-11T00:05:57;51969.38;;;-145.37;42.10
13486;BME280;6815;59.336;17.998;2023-05-11T00:08:23;51973.38;;;-145.37;41.64
13486;BME280;6815;59.336;17.998;2023-05-11T00:10:48;51965.41;;;-145.37;41.78
13486;BME280;6815;59.336;17.998;2023-05-11T00:13:14;51971.38;;;-145.37;41.68
13486;BME280;6815;59.336;17.998;2023-05-11T00:15:40;51969.38;;;-145.37;42.17
13486;BME280;6815;59.336;17.998;2023-05-11T00:18:06;51973.38;;;-145.37;42.26
13486;BME280;6815;59.336;17.998;2023-05-11T00:20:31;51957.41;;;-145.37;41.97
13486;BME280;6815;59.336;17.998;2023-05-11T00:22:56;51965.41;;;-145.37;42.05
13486;BME280;6815;59.336;17.998;2023-05-11T00:25:22;51975.38;;;-145.37;42.23
13486;BME280;6815;59.336;17.998;2023-05-11T00:27:47;51977.38;;;-145.37;42.20
13486;BME280;6815;59.336;17.998;2023-05-11T00:30:13;51995.34;;;-145.37;41.91
13486;BME280;6815;59.336;17.998;2023-05-11T00:32:42;51985.34;;;-145.37;42.14
13486;BME280;6815;59.336;17.998;2023-05-11T00:35:11;51989.34;;;-145.37;41.94
13486;BME280;6815;59.336;17.998;2023-05-11T00:37:40;51961.41;;;-145.37;42.06
13486;BME280;6815;59.336;17.998;2023-05-11T00:40:06;51985.34;;;-145.37;42.14
13486;BME280;6815;59.336;17.998;2023-05-11T00:42:31;51991.34;;;-145.37;42.16
13486;BME280;6815;59.336;17.998;2023-05-11T00:44:57;51997.34;;;-145.37;41.83
13486;BME280;6815;59.336;17.998;2023-05-11T00:47:23;51959.41;;;-145.37;42.11
13486;BME280;6815;59.336;17.998;2023-05-11T00:49:51;51967.38;;;-145.37;41.89
13486;BME280;6815;59.336;17.998;2023-05-11T00:52:18;52007.31;;;-145.37;42.12
13486;BME280;6815;59.336;17.998;2023-05-11T00:54:43;51953.41;;;-145.37;41.83
13486;BME280;6815;59.336;17.998;2023-05-11T00:57:10;51961.41;;;-145.37;42.24
13486;BME280;6815;59.336;17.998;2023-05-11T00:59:36;51969.38;;;-145.37;42.69
13486;BME280;6815;59.336;17.998;2023-05-11T01:02:02;51971.38;;;-145.37;42.42
13486;BME280;6815;59.336;17.998;2023-05-11T01:04:28;51957.41;;;-145.37;42.14
13486;BME280;6815;59.336;17.998;2023-05-11T01:07:03;51953.41;;;-145.37;42.00
13486;BME280;6815;59.336;17.998;2023-05-11T01:14:44;51983.34;;;-145.37;42.20
13486;BME280;6815;59.336;17.998;2023-05-11T01:17:22;51961.41;;;-145.37;41.98
13486;BME280;6815;59.336;17.998;2023-05-11T01:20:04;51985.34;;;-145.37;42.41
13486;BME280;6815;59.336;17.998;2023-05-11T01:31:29;51943.44;;;-145.37;43.00
13486;BME280;6815;59.336;17.998;2023-05-11T01:34:11;51979.38;;;-145.37;42.47
13486;BME280;6815;59.336;17.998;2023-05-11T01:36:43;51975.38;;;-145.37;42.34
13486;BME280;6815;59.336;17.998;2023-05-11T01:39:13;51989.34;;;-145.37;42.80
13486;BME280;6815;59.336;17.998;2023-05-11T01:41:40;51991.34;;;-145.37;42.55
13486;BME280;6815;59.336;17.998;2023-05-11T01:44:09;51985.34;;;-145.37;42.68
13486;BME280;6815;59.336;17.998;2023-05-11T01:46:36;51965.41;;;-145.37;43.28
13486;BME280;6815;59.336;17.998;2023-05-11T01:49:05;51953.41;;;-145.37;42.74
13486;BME280;6815;59.336;17.998;2023-05-11T01:51:35;51977.38;;;-145.37;42.57
13486;BME280;6815;59.336;17.998;2023-05-11T01:54:06;51963.41;;;-145.37;42.34
13486;BME280;6815;59.336;17.998;2023-05-11T01:56:35;51959.41;;;-145.37;43.28
13486;BME280;6815;59.336;17.998;2023-05-11T01:59:02;51939.44;;;-145.37;43.66
13486;BME280;6815;59.336;17.998;2023-05-11T02:01:28;51965.41;;;-145.37;44.59
13486;BME280;6815;59.336;17.998;2023-05-11T02:03:55;51917.50;;;-145.37;44.27
13486;BME280;6815;59.336;17.998;2023-05-11T02:06:24;51957.41;;;-145.37;44.34
13486;BME280;6815;59.336;17.998;2023-05-11T02:08:51;51965.41;;;-145.37;44.30
13486;BME280;6815;59.336;17.998;2023-05-11T02:11:18;51983.34;;;-145.37;43.58
13486;BME280;6815;59.336;17.998;2023-05-11T02:13:48;51955.41;;;-145.37;43.58
13486;BME280;6815;59.336;17.998;2023-05-11T02:16:17;51965.41;;;-145.37;44.04
13486;BME280;6815;59.336;17.998;2023-05-11T02:18:44;51967.38;;;-145.37;43.39
13486;BME280;6815;59.336;17.998;2023-05-11T02:21:10;51955.41;;;-145.37;43.56
13486;BME280;6815;59.336;17.998;2023-05-11T02:23:37;51963.41;;;-145.37;43.14
13486;BME280;6815;59.336;17.998;2023-05-11T02:26:05;51951.41;;;-145.37;43.27
13486;BME280;6815;59.336;17.998;2023-05-11T02:28:32;51943.44;;;-145.37;43.26
13486;BME280;6815;59.336;17.998;2023-05-11T02:31:01;51999.34;;;-145.37;43.20
13486;BME280;6815;59.336;17.998;2023-05-11T02:33:33;51931.47;;;-145.37;43.18
13486;BME280;6815;59.336;17.998;2023-05-11T02:36:00;51963.41;;;-145.37;43.44
13486;BME280;6815;59.336;17.998;2023-05-11T02:38:32;51951.41;;;-145.37;44.45
13486;BME280;6815;59.336;17.998;2023-05-11T02:41:02;51971.38;;;-145.37;45.05
13486;BME280;6815;59.336;17.998;2023-05-11T02:43:32;51935.47;;;-145.37;44.97
13486;BME280;6815;59.336;17.998;2023-05-11T02:46:02;51979.38;;;-145.37;44.34
13486;BME280;6815;59.336;17.998;2023-05-11T02:48:31;51945.44;;;-145.37;44.79
13486;BME280;6815;59.336;17.998;2023-05-11T02:50:59;51957.41;;;-145.37;45.12
13486;BME280;6815;59.336;17.998;2023-05-11T02:53:27;51947.44;;;-145.37;44.95
13486;BME280;6815;59.336;17.998;2023-05-11T02:55:54;51937.44;;;-145.37;45.75
13486;BME280;6815;59.336;17.998;2023-05-11T02:58:21;51961.41;;;-145.37;45.65
13486;BME280;6815;59.336;17.998;2023-05-11T03:00:47;51949.44;;;-145.37;46.34
13486;BME280;6815;59.336;17.998;2023-05-11T03:03:14;51985.34;;;-145.37;46.69
13486;BME280;6815;59.336;17.998;2023-05-11T03:05:39;51961.41;;;-145.37;47.56
13486;BME280;6815;59.336;17.998;2023-05-11T03:08:05;51955.41;;;-145.37;47.23
13486;BME280;6815;59.336;17.998;2023-05-11T03:10:30;51989.34;;;-145.37;47.38
13486;BME280;6815;59.336;17.998;2023-05-11T03:12:56;51967.38;;;-145.37;48.66
13486;BME280;6815;59.336;17.998;2023-05-11T03:15:23;51961.41;;;-145.37;48.44
13486;BME280;6815;59.336;17.998;2023-05-11T03:17:50;51975.38;;;-145.37;49.36
13486;BME280;6815;59.336;17.998;2023-05-11T03:20:16;51973.38;;;-145.37;49.67
13486;BME280;6815;59.336;17.998;2023-05-11T03:22:44;51967.38;;;-145.37;49.47
13486;BME280;6815;59.336;17.998;2023-05-11T03:25:11;51951.41;;;-145.37;48.47
13486;BME280;6815;59.336;17.998;2023-05-11T03:27:37;51937.44;;;-145.37;48.97
13486;BME280;6815;59.336;17.998;2023-05-11T03:30:08;51961.41;;;-145.37;49.52
13486;BME280;6815;59.336;17.998;2023-05-11T03:32:35;51951.41;;;-145.37;48.82
13486;BME280;6815;59.336;17.998;2023-05-11T03:35:01;51969.38;;;-145.37;48.71
13486;BME280;6815;59.336;17.998;2023-05-11T03:37:28;51987.34;;;-145.37;47.92
13486;BME280;6815;59.336;17.998;2023-05-11T03:39:57;51937.44;;;-145.37;48.43
13486;BME280;6815;59.336;17.998;2023-05-11T03:42:24;51971.38;;;-145.37;48.40
13486;BME280;6815;59.336;17.998;2023-05-11T03:44:50;51991.34;;;-145.37;47.37
13486;BME280;6815;59.336;17.998;2023-05-11T03:47:20;51957.41;;;-145.37;47.12
13486;BME280;6815;59.336;17.998;2023-05-11T03:49:47;51967.38;;;-145.37;47.24
13486;BME280;6815;59.336;17.998;2023-05-11T03:52:13;51943.44;;;-145.37;46.66
13486;BME280;6815;59.336;17.998;2023-05-11T03:54:40;51945.44;;;-145.37;47.17
13486;BME280;6815;59.336;17.998;2023-05-11T03:57:08;51947.44;;;-145.37;47.53
13486;BME280;6815;59.336;17.998;2023-05-11T03:59:34;51995.34;;;-145.37;47.07
13486;BME280;6815;59.336;17.998;2023-05-11T04:01:59;51955.41;;;-145.37;46.77
13486;BME280;6815;59.336;17.998;2023-05-11T04:04:30;51975.38;;;-145.37;46.82
13486;BME280;6815;59.336;17.998;2023-05-11T04:06:57;51967.38;;;-145.37;46.64
13486;BME280;6815;59.336;17.998;2023-05-11T04:09:23;51947.44;;;-145.37;46.20
13486;BME280;6815;59.336;17.998;2023-05-11T04:11:48;51941.44;;;-145.37;46.40
13486;BME280;6815;59.336;17.998;2023-05-11T04:14:14;51937.44;;;-145.37;45.75
13486;BME280;6815;59.336;17.998;2023-05-11T04:16:39;51941.44;;;-145.37;45.89
13486;BME280;6815;59.336;17.998;2023-05-11T04:19:05;52055.22;;;-145.37;44.65
13486;BME280;6815;59.336;17.998;2023-05-11T04:21:31;51961.41;;;-145.37;45.27
13486;BME280;6815;59.336;17.998;2023-05-11T04:23:57;51979.38;;;-145.37;44.89
13486;BME280;6815;59.336;17.998;2023-05-11T04:26:23;51977.38;;;-145.37;45.08
13486;BME280;6815;59.336;17.998;2023-05-11T04:28:49;51973.38;;;-145.37;44.48
13486;BME280;6815;59.336;17.998;2023-05-11T04:31:14;51969.38;;;-145.37;44.16
13486;BME280;6815;59.336;17.998;2023-05-11T04:33:41;51949.44;;;-145.37;44.30
13486;BME280;6815;59.336;17.998;2023-05-11T04:36:07;51949.44;;;-145.37;43.89
13486;BME280;6815;59.336;17.998;2023-05-11T04:38:32;51997.34;;;-145.37;43.89
13486;BME280;6815;59.336;17.998;2023-05-11T04:41:04;51961.41;;;-145.37;43.28
13486;BME280;6815;59.336;17.998;2023-05-11T04:43:31;51985.34;;;-145.37;43.26
13486;BME280;6815;59.336;17.998;2023-05-11T04:45:57;51939.44;;;-145.37;43.02
13486;BME280;6815;59.336;17.998;2023-05-11T04:48:23;51963.41;;;-145.37;42.73
13486;BME280;6815;59.336;17.998;2023-05-11T04:50:51;51957.41;;;-145.37;42.82
13486;BME280;6815;59.336;17.998;2023-05-11T04:53:17;51959.41;;;-145.37;42.83
13486;BME280;6815;59.336;17.998;2023-05-11T04:55:43;51973.38;;;-145.37;42.80
13486;BME280;6815;59.336;17.998;2023-05-11T04:58:08;51937.44;;;-145.37;42.54
13486;BME280;6815;59.336;17.998;2023-05-11T05:00:34;51977.38;;;-145.37;42.35
13486;BME280;6815;59.336;17.998;2023-05-11T05:03:01;51979.38;;;-145.37;42.18
13486;BME280;6815;59.336;17.998;2023-05-11T05:05:26;51957.41;;;-145.37;41.94
13486;BME280;6815;59.336;17.998;2023-05-11T05:07:52;51975.38;;;-145.37;40.87
13486;BME280;6815;59.336;17.998;2023-05-11T05:10:17;51929.47;;;-145.37;39.83
13486;BME280;6815;59.336;17.998;2023-05-11T05:12:43;51973.38;;;-145.37;39.08
13486;BME280;6815;59.336;17.998;2023-05-11T05:15:09;51965.41;;;-145.37;38.44
13486;BME280;6815;59.336;17.998;2023-05-11T05:17:35;52007.31;;;-145.37;37.89
13486;BME280;6815;59.336;17.998;2023-05-11T05:20:01;51985.34;;;-145.37;37.36
13486;BME280;6815;59.336;17.998;2023-05-11T05:22:27;51955.41;;;-145.37;36.81
13486;BME280;6815;59.336;17.998;2023-05-11T05:24:52;51937.44;;;-145.37;36.17
13486;BME280;6815;59.336;17.998;2023-05-11T05:27:18;51967.38;;;-145.37;36.02
13486;BME280;6815;59.336;17.998;2023-05-11T05:29:43;51955.41;;;-145.37;35.29
13486;BME280;6815;59.336;17.998;2023-05-11T05:32:09;51947.44;;;-145.37;35.01
13486;BME280;6815;59.336;17.998;2023-05-11T05:34:34;51965.41;;;-145.37;34.70
13486;BME280;6815;59.336;17.998;2023-05-11T05:37:00;51961.41;;;-145.37;34.21
13486;BME280;6815;59.336;17.998;2023-05-11T05:39:25;51973.38;;;-145.37;33.61
13486;BME280;6815;59.336;17.998;2023-05-11T05:41:51;51949.44;;;-145.37;33.30
13486;BME280;6815;59.336;17.998;2023-05-11T05:44:16;51951.41;;;-145.37;33.36
13486;BME280;6815;59.336;17.998;2023-05-11T05:46:42;51927.47;;;-145.37;33.01
13486;BME280;6815;59.336;17.998;2023-05-11T05:49:07;51971.38;;;-145.37;33.05
13486;BME280;6815;59.336;17.998;2023-05-11T05:51:33;51927.47;;;-145.37;33.12
13486;BME280;6815;59.336;17.998;2023-05-11T05:53:58;51957.41;;;-145.37;32.67
13486;BME280;6815;59.336;17.998;2023-05-11T05:56:24;51943.44;;;-145.37;32.27
13486;BME280;6815;59.336;17.998;2023-05-11T05:58:50;51931.47;;;-145.37;32.58
13486;BME280;6815;59.336;17.998;2023-05-11T06:01:15;51895.53;;;-145.37;32.24
13486;BME280;6815;59.336;17.998;2023-05-11T06:03:41;51967.38;;;-145.37;31.92
13486;BME280;6815;59.336;17.998;2023-05-11T06:06:09;51891.53;;;-145.37;31.26
13486;BME280;6815;59.336;17.998;2023-05-11T06:08:37;51935.47;;;-145.37;31.40
13486;BME280;6815;59.336;17.998;2023-05-11T06:11:03;51899.53;;;-145.37;30.62
13486;BME280;6815;59.336;17.998;2023-05-11T06:13:34;51921.47;;;-145.37;30.42
13486;BME280;6815;59.336;17.998;2023-05-11T06:15:59;51983.34;;;-145.37;30.60
13486;BME280;6815;59.336;17.998;2023-05-11T06:18:29;51887.53;;;-145.37;30.26
13486;BME280;6815;59.336;17.998;2023-05-11T06:21:18;51899.53;;;-145.37;29.81
13486;BME280;6815;59.336;17.998;2023-05-11T06:24:08;51895.53;;;-145.37;29.77
13486;BME280;6815;59.336;17.998;2023-05-11T06:26:34;51917.50;;;-145.37;29.90
13486;BME280;6815;59.336;17.998;2023-05-11T06:29:00;51827.66;;;-145.37;29.67
13486;BME280;6815;59.336;17.998;2023-05-11T06:31:28;51919.50;;;-145.37;29.95
13486;BME280;6815;59.336;17.998;2023-05-11T06:33:56;51939.44;;;-145.37;29.81
13486;BME280;6815;59.336;17.998;2023-05-11T06:36:25;51955.41;;;-145.37;29.79
13486;BME280;6815;59.336;17.998;2023-05-11T06:38:51;51915.50;;;-145.37;29.32
13486;BME280;6815;59.336;17.998;2023-05-11T06:41:18;51893.53;;;-145.37;29.29
13486;BME280;6815;59.336;17.998;2023-05-11T06:43:43;51933.47;;;-145.37;29.34
13486;BME280;6815;59.336;17.998;2023-05-11T06:46:09;52019.28;;;-145.37;29.59
13486;BME280;6815;59.336;17.998;2023-05-11T06:48:41;51927.47;;;-145.37;29.75
13486;BME280;6815;59.336;17.998;2023-05-11T06:51:10;51881.56;;;-145.37;29.44
13486;BME280;6815;59.336;17.998;2023-05-11T06:53:37;51885.56;;;-145.37;29.60
13486;BME280;6815;59.336;17.998;2023-05-11T06:56:02;51899.53;;;-145.37;29.50
13486;BME280;6815;59.336;17.998;2023-05-11T06:58:35;51941.44;;;-145.37;29.48
13486;BME280;6815;59.336;17.998;2023-05-11T07:01:25;51891.53;;;-145.37;29.63
13486;BME280;6815;59.336;17.998;2023-05-11T07:03:55;51917.50;;;-145.37;29.20
13486;BME280;6815;59.336;17.998;2023-05-11T07:06:20;51905.50;;;-145.37;29.19
13486;BME280;6815;59.336;17.998;2023-05-11T07:08:46;51899.53;;;-145.37;29.56
13486;BME280;6815;59.336;17.998;2023-05-11T07:11:11;51933.47;;;-145.37;29.95
13486;BME280;6815;59.336;17.998;2023-05-11T07:13:37;51881.56;;;-145.37;29.09
13486;BME280;6815;59.336;17.998;2023-05-11T07:16:04;51907.50;;;-145.37;29.63
13486;BME280;6815;59.336;17.998;2023-05-11T07:18:29;51905.50;;;-145.37;29.19
13486;BME280;6815;59.336;17.998;2023-05-11T07:20:55;51905.50;;;-145.37;29.28
13486;BME280;6815;59.336;17.998;2023-05-11T07:23:21;51919.50;;;-145.37;29.27
13486;BME280;6815;59.336;17.998;2023-05-11T07:25:46;51947.44;;;-145.37;29.27
13486;BME280;6815;59.336;17.998;2023-05-11T07:28:12;51915.50;;;-145.37;29.40
13486;BME280;6815;59.336;17.998;2023-05-11T07:30:39;51919.50;;;-145.37;29.40
13486;BME280;6815;59.336;17.998;2023-05-11T07:33:04;51925.47;;;-145.37;29.27
13486;BME280;6815;59.336;17.998;2023-05-11T07:35:31;51931.47;;;-145.37;29.20
13486;BME280;6815;59.336;17.998;2023-05-11T07:37:56;51933.47;;;-145.37;29.17
13486;BME280;6815;59.336;17.998;2023-05-11T07:40:22;51903.50;;;-145.37;29.19
13486;BME280;6815;59.336;17.998;2023-05-11T07:42:48;51937.44;;;-145.37;29.04
13486;BME280;6815;59.336;17.998;2023-05-11T07:45:13;51933.47;;;-145.37;29.17
13486;BME280;6815;59.336;17.998;2023-05-11T07:47:39;51919.50;;;-145.37;29.45
13486;BME280;6815;59.336;17.998;2023-05-11T07:50:05;51893.53;;;-145.37;29.71
13486;BME280;6815;59.336;17.998;2023-05-11T07:52:30;51929.47;;;-145.37;29.70
13486;BME280;6815;59.336;17.998;2023-05-11T07:55:05;51945.44;;;-145.37;29.50
13486;BME280;6815;59.336;17.998;2023-05-11T07:57:31;52007.31;;;-145.37;29.30
13486;BME280;6815;59.336;17.998;2023-05-11T08:00:00;52031.25;;;-145.37;29.19
13486;BME280;6815;59.336;17.998;2023-05-11T08:02:26;51911.50;;;-145.37;29.19
13486;BME280;6815;59.336;17.998;2023-05-11T08:04:54;51911.50;;;-145.37;29.14
13486;BME280;6815;59.336;17.998;2023-05-11T08:07:22;51921.47;;;-145.37;29.01
13486;BME280;6815;59.336;17.998;2023-05-11T08:09:47;51889.53;;;-145.37;28.94
13486;BME280;6815;59.336;17.998;2023-05-11T08:12:14;51901.53;;;-145.37;29.14
13486;BME280;6815;59.336;17.998;2023-05-11T08:14:41;51935.47;;;-145.37;29.04
13486;BME280;6815;59.336;17.998;2023-05-11T08:17:08;51899.53;;;-145.37;29.01
13486;BME280;6815;59.336;17.998;2023-05-11T08:19:37;51945.44;;;-145.37;29.24
13486;BME280;6815;59.336;17.998;2023-05-11T08:22:04;51913.50;;;-145.37;29.35
13486;BME280;6815;59.336;17.998;2023-05-11T08:24:31;51941.44;;;-145.37;29.14
13486;BME280;6815;59.336;17.998;2023-05-11T08:26:58;51893.53;;;-145.37;28.67
13486;BME280;6815;59.336;17.998;2023-05-11T08:29:24;51905.50;;;-145.37;28.32
13486;BME280;6815;59.336;17.998;2023-05-11T08:31:53;51905.50;;;-145.37;28.04
13486;BME280;6815;59.336;17.998;2023-05-11T08:34:19;51989.34;;;-145.37;28.10
13486;BME280;6815;59.336;17.998;2023-05-11T08:36:45;51911.50;;;-145.37;27.91
13486;BME280;6815;59.336;17.998;2023-05-11T08:39:12;51931.47;;;-145.37;27.83
13486;BME280;6815;59.336;17.998;2023-05-11T08:41:39;51953.41;;;-145.37;28.06
13486;BME280;6815;59.336;17.998;2023-05-11T08:44:05;52045.25;;;-145.37;28.01
13486;BME280;6815;59.336;17.998;2023-05-11T08:46:41;51919.50;;;-145.37;28.31
13486;BME280;6815;59.336;17.998;2023-05-11T08:49:13;51925.47;;;-145.37;28.82
13486;BME280;6815;59.336;17.998;2023-05-11T08:51:43;51903.50;;;-145.37;29.16
13486;BME280;6815;59.336;17.998;2023-05-11T08:54:15;51925.47;;;-145.37;27.71
13486;BME280;6815;59.336;17.998;2023-05-11T08:56:42;51917.50;;;-145.37;27.29
13486;BME280;6815;59.336;17.998;2023-05-11T08:59:08;51931.47;;;-145.37;27.09
13486;BME280;6815;59.336;17.998;2023-05-11T09:01:41;51935.47;;;-145.37;27.34
13486;BME280;6815;59.336;17.998;2023-05-11T09:04:28;51923.47;;;-145.37;27.07
13486;BME280;6815;59.336;17.998;2023-05-11T09:06:56;51935.47;;;-145.37;27.00
13486;BME280;6815;59.336;17.998;2023-05-11T09:09:48;51937.44;;;-145.37;26.82
13486;BME280;6815;59.336;17.998;2023-05-11T09:12:34;51945.44;;;-145.37;27.03
13486;BME280;6815;59.336;17.998;2023-05-11T09:17:37;51947.44;;;-145.37;26.20
13486;BME280;6815;59.336;17.998;2023-05-11T09:20:06;51909.50;;;-145.37;26.06
13486;BME280;6815;59.336;17.998;2023-05-11T09:22:45;51907.50;;;-145.37;25.96
13486;BME280;6815;59.336;17.998;2023-05-11T09:27:59;51763.78;;;-145.37;26.12
13486;BME280;6815;59.336;17.998;2023-05-11T09:30:25;51893.53;;;-145.37;26.24
13486;BME280;6815;59.336;17.998;2023-05-11T09:32:56;51915.50;;;-145.37;25.91
13486;BME280;6815;59.336;17.998;2023-05-11T09:35:33;51925.47;;;-145.37;25.35
13486;BME280;6815;59.336;17.998;2023-05-11T09:38:04;51923.47;;;-145.37;25.28
13486;BME280;6815;59.336;17.998;2023-05-11T09:40:40;51893.53;;;-145.37;25.06
13486;BME280;6815;59.336;17.998;2023-05-11T09:43:16;51973.38;;;-145.37;25.09
13486;BME280;6815;59.336;17.998;2023-05-11T09:45:44;51917.50;;;-145.37;25.41
13486;BME280;6815;59.336;17.998;2023-05-11T09:50:50;51843.63;;;-145.37;25.02
13486;BME280;6815;59.336;17.998;2023-05-11T09:53:18;51897.53;;;-145.37;24.93
13486;BME280;6815;59.336;17.998;2023-05-11T09:55:54;51907.50;;;-145.37;25.05
13486;BME280;6815;59.336;17.998;2023-05-11T09:58:48;51923.47;;;-145.37;24.80
13486;BME280;6815;59.336;17.998;2023-05-11T10:02:17;51891.53;;;-145.37;24.71
13486;BME280;6815;59.336;17.998;2023-05-11T10:07:44;51927.47;;;-145.37;24.79
13486;BME280;6815;59.336;17.998;2023-05-11T10:10:53;51879.56;;;-145.37;24.56
13486;BME280;6815;59.336;17.998;2023-05-11T10:13:43;51905.50;;;-145.37;24.19
13486;BME280;6815;59.336;17.998;2023-05-11T10:16:16;51907.50;;;-145.37;24.28
13486;BME280;6815;59.336;17.998;2023-05-11T10:18:50;51905.50;;;-145.37;24.36
13486;BME280;6815;59.336;17.998;2023-05-11T10:21:23;51915.50;;;-145.37;24.40
13486;BME280;6815;59.336;17.998;2023-05-11T10:26:54;51901.53;;;-145.37;24.31
13486;BME280;6815;59.336;17.998;2023-05-11T10:29:43;51941.44;;;-145.37;24.44
13486;BME280;6815;59.336;17.998;2023-05-11T10:32:11;51961.41;;;-145.37;23.99
13486;BME280;6815;59.336;17.998;2023-05-11T10:34:41;51949.44;;;-145.37;24.22
13486;BME280;6815;59.336;17.998;2023-05-11T10:37:36;51921.47;;;-145.37;23.83
13486;BME280;6815;59.336;17.998;2023-05-11T10:40:47;51901.53;;;-145.37;24.27
13486;BME280;6815;59.336;17.998;2023-05-11T11:02:10;51913.50;;;-145.37;24.79
13486;BME280;6815;59.336;17.998;2023-05-11T11:04:53;52007.31;;;-145.37;25.05
13486;BME280;6815;59.336;17.998;2023-05-11T11:07:20;51857.59;;;-145.37;25.08
13486;BME280;6815;59.336;17.998;2023-05-11T11:09:56;51917.50;;;-145.37;25.06
13486;BME280;6815;59.336;17.998;2023-05-11T11:12:23;51911.50;;;-145.37;24.80
13486;BME280;6815;59.336;17.998;2023-05-11T11:15:23;51897.53;;;-145.37;25.08
13486;BME280;6815;59.336;17.998;2023-05-11T11:18:32;51907.50;;;-145.37;24.58
13486;BME280;6815;59.336;17.998;2023-05-11T11:21:04;51915.50;;;-145.37;24.56
13486;BME280;6815;59.336;17.998;2023-05-11T11:23:40;51909.50;;;-145.37;24.77
13486;BME280;6815;59.336;17.998;2023-05-11T11:26:07;51919.50;;;-145.37;24.71
13486;BME280;6815;59.336;17.998;2023-05-11T11:31:51;52015.28;;;-145.37;24.55
13486;BME280;6815;59.336;17.998;2023-05-11T11:34:48;51921.47;;;-145.37;24.72
13486;BME280;6815;59.336;17.998;2023-05-11T11:38:00;51935.47;;;-145.37;24.15
13486;BME280;6815;59.336;17.998;2023-05-11T11:41:30;51941.44;;;-145.37;24.38
13486;BME280;6815;59.336;17.998;2023-05-11T11:47:41;51907.50;;;-145.37;24.45
13486;BME280;6815;59.336;17.998;2023-05-11T11:50:11;51929.47;;;-145.37;24.72
13486;BME280;6815;59.336;17.998;2023-05-11T11:52:58;51911.50;;;-145.37;24.79
13486;BME280;6815;59.336;17.998;2023-05-11T11:55:53;51869.59;;;-145.37;24.73
13486;BME280;6815;59.336;17.998;2023-05-11T12:01:36;51885.56;;;-145.37;24.66
13486;BME280;6815;59.336;17.998;2023-05-11T12:04:15;51879.56;;;-145.37;24.80
13486;BME280;6815;59.336;17.998;2023-05-11T12:06:56;51885.56;;;-145.37;24.61
13486;BME280;6815;59.336;17.998;2023-05-11T12:09:37;51945.44;;;-145.37;24.38
13486;BME280;6815;59.336;17.998;2023-05-11T12:12:34;51943.44;;;-145.37;24.23
13486;BME280;6815;59.336;17.998;2023-05-11T12:15:06;51905.50;;;-145.37;24.25
13486;BME280;6815;59.336;17.998;2023-05-11T12:17:37;51931.47;;;-145.37;24.42
13486;BME280;6815;59.336;17.998;2023-05-11T12:20:16;52009.31;;;-145.37;24.67
13486;BME280;6815;59.336;17.998;2023-05-11T12:22:45;51885.56;;;-145.37;24.15
13486;BME280;6815;59.336;17.998;2023-05-11T12:25:20;51897.53;;;-145.37;24.61
13486;BME280;6815;59.336;17.998;2023-05-11T12:28:07;51899.53;;;-145.37;24.75
13486;BME280;6815;59.336;17.998;2023-05-11T12:30:33;51889.53;;;-145.37;24.39
13486;BME280;6815;59.336;17.998;2023-05-11T12:33:00;51931.47;;;-145.37;24.36
13486;BME280;6815;59.336;17.998;2023-05-11T12:35:33;51939.44;;;-145.37;24.20
13486;BME280;6815;59.336;17.998;2023-05-11T12:38:00;51931.47;;;-145.37;24.44
13486;BME280;6815;59.336;17.998;2023-05-11T12:40:26;51909.50;;;-145.37;24.29
13486;BME280;6815;59.336;17.998;2023-05-11T12:42:53;51941.44;;;-145.37;24.38
13486;BME280;6815;59.336;17.998;2023-05-11T12:45:19;51901.53;;;-145.37;24.27
13486;BME280;6815;59.336;17.998;2023-05-11T12:47:47;51933.47;;;-145.37;24.45
13486;BME280;6815;59.336;17.998;2023-05-11T12:50:13;51909.50;;;-145.37;24.27
13486;BME280;6815;59.336;17.998;2023-05-11T12:52:38;51913.50;;;-145.37;24.35
13486;BME280;6815;59.336;17.998;2023-05-11T12:55:06;51925.47;;;-145.37;24.56
13486;BME280;6815;59.336;17.998;2023-05-11T12:57:31;51905.50;;;-145.37;24.61
13486;BME280;6815;59.336;17.998;2023-05-11T13:00:05;51877.56;;;-145.37;24.69
13486;BME280;6815;59.336;17.998;2023-05-11T13:02:32;51955.41;;;-145.37;24.64
13486;BME280;6815;59.336;17.998;2023-05-11T13:04:57;51961.41;;;-145.37;24.68
13486;BME280;6815;59.336;17.998;2023-05-11T13:07:26;51907.50;;;-145.37;24.76
13486;BME280;6815;59.336;17.998;2023-05-11T13:09:56;51935.47;;;-145.37;24.87
13486;BME280;6815;59.336;17.998;2023-05-11T13:12:22;51909.50;;;-145.37;24.66
13486;BME280;6815;59.336;17.998;2023-05-11T13:15:03;51917.50;;;-145.37;24.66
13486;BME280;6815;59.336;17.998;2023-05-11T13:17:29;51889.53;;;-145.37;24.56
13486;BME280;6815;59.336;17.998;2023-05-11T13:19:55;51961.41;;;-145.37;24.64
13486;BME280;6815;59.336;17.998;2023-05-11T13:22:21;51923.47;;;-145.37;24.56
13486;BME280;6815;59.336;17.998;2023-05-11T13:24:48;51893.53;;;-145.37;24.52
13486;BME280;6815;59.336;17.998;2023-05-11T13:27:15;51929.47;;;-145.37;24.53
13486;BME280;6815;59.336;17.998;2023-05-11T13:29:40;51927.47;;;-145.37;24.56
13486;BME280;6815;59.336;17.998;2023-05-11T13:32:07;51887.53;;;-145.37;24.35
13486;BME280;6815;59.336;17.998;2023-05-11T13:34:34;51951.41;;;-145.37;24.43
13486;BME280;6815;59.336;17.998;2023-05-11T13:37:00;51901.53;;;-145.37;24.25
13486;BME280;6815;59.336;17.998;2023-05-11T13:39:26;51969.38;;;-145.37;24.62
13486;BME280;6815;59.336;17.998;2023-05-11T13:41:52;51949.44;;;-145.37;24.35
13486;BME280;6815;59.336;17.998;2023-05-11T13:44:17;51909.50;;;-145.37;24.22
13486;BME280;6815;59.336;17.998;2023-05-11T13:46:43;51911.50;;;-145.37;24.28
13486;BME280;6815;59.336;17.998;2023-05-11T13:49:08;52023.28;;;-145.37;24.22
13486;BME280;6815;59.336;17.998;2023-05-11T13:51:34;51929.47;;;-145.37;24.22